createdAt,value
2019-04-05T00:00:15.863Z,996.68
2019-04-05T00:01:15.786Z,996.70
2019-04-05T00:02:15.783Z,996.70
2019-04-05T00:03:15.792Z,996.70
2019-04-05T00:04:15.757Z,996.70
2019-04-05T00:05:15.744Z,996.71
2019-04-05T00:06:15.737Z,996.71
2019-04-05T00:07:15.722Z,996.73
2019-04-05T00:08:15.716Z,996.75
2019-04-05T00:09:15.761Z,996.81
2019-04-05T00:10:15.692Z,996.80
2019-04-05T00:11:15.694Z,996.81
2019-04-05T00:12:15.671Z,996.82
2019-04-05T00:13:15.663Z,996.79
2019-04-05T00:14:15.654Z,996.77
2019-04-05T00:15:16.177Z,996.80
2019-04-05T00:16:15.628Z,996.79
2019-04-05T00:17:15.615Z,996.81
2019-04-05T00:18:15.600Z,996.79
2019-04-05T00:19:15.664Z,996.77
2019-04-05T00:20:15.585Z,996.78
2019-04-05T00:21:15.573Z,996.77
2019-04-05T00:22:15.561Z,996.75
2019-04-05T00:23:15.547Z,996.80
2019-04-05T00:24:15.538Z,996.78
2019-04-05T00:25:15.551Z,996.80
2019-04-05T00:26:15.516Z,996.80
2019-04-05T00:27:15.507Z,996.79
2019-04-05T00:28:15.506Z,996.77
2019-04-05T00:29:15.544Z,996.78
2019-04-05T00:30:15.470Z,996.76
2019-04-05T00:31:15.467Z,996.72
2019-04-05T00:32:15.489Z,996.74
2019-04-05T00:33:15.441Z,996.75
2019-04-05T00:34:15.427Z,996.76
2019-04-05T00:35:15.432Z,996.73
2019-04-05T00:36:15.406Z,996.77
2019-04-05T00:37:15.395Z,996.74
2019-04-05T00:38:15.390Z,996.72
2019-04-05T00:39:15.379Z,996.76
2019-04-05T00:40:15.411Z,996.76
2019-04-05T00:41:15.361Z,996.78
2019-04-05T00:42:15.408Z,996.79
2019-04-05T00:43:15.334Z,996.77
2019-04-05T00:44:15.326Z,996.78
2019-04-05T00:45:27.210Z,996.82
2019-04-05T00:46:16.309Z,996.83
2019-04-05T00:47:15.289Z,996.84
2019-04-05T00:48:15.281Z,996.83
2019-04-05T00:49:15.270Z,996.83
2019-04-05T00:50:15.332Z,996.81
2019-04-05T00:51:15.246Z,996.84
2019-04-05T00:52:15.233Z,996.85
2019-04-05T00:53:15.230Z,996.85
2019-04-05T00:54:15.210Z,996.85
2019-04-05T00:55:15.212Z,996.85
2019-04-05T00:56:15.206Z,996.86
2019-04-05T00:57:15.225Z,996.86
2019-04-05T00:58:15.171Z,996.83
2019-04-05T00:59:15.157Z,996.85
2019-04-05T01:00:15.146Z,996.88
2019-04-05T01:01:15.141Z,996.87
2019-04-05T01:02:15.129Z,996.90
2019-04-05T01:03:15.127Z,996.95
2019-04-05T01:04:15.117Z,996.90
2019-04-05T01:05:15.097Z,996.90
2019-04-05T01:06:15.141Z,996.90
2019-04-05T01:07:15.078Z,996.90
2019-04-05T01:08:15.062Z,996.90
2019-04-05T01:09:15.058Z,996.88
2019-04-05T01:10:15.041Z,996.93
2019-04-05T01:11:15.079Z,996.96
2019-04-05T01:12:15.064Z,996.97
2019-04-05T01:13:15.009Z,996.98
2019-04-05T01:14:15.054Z,996.99
2019-04-05T01:15:14.987Z,996.98
2019-04-05T01:16:14.972Z,997.04
2019-04-05T01:17:24.494Z,997.05
2019-04-05T01:18:15.948Z,997.04
2019-04-05T01:19:14.985Z,997.04
2019-04-05T01:20:14.929Z,997.04
2019-04-05T01:21:14.923Z,997.08
2019-04-05T01:22:14.908Z,997.05
2019-04-05T01:23:14.921Z,997.06
2019-04-05T01:24:14.891Z,997.09
2019-04-05T01:25:14.882Z,997.10
2019-04-05T01:26:14.862Z,997.08
2019-04-05T01:27:14.856Z,997.06
2019-04-05T01:28:14.841Z,997.09
2019-04-05T01:29:14.875Z,997.06
2019-04-05T01:30:14.819Z,997.05
2019-04-05T01:31:14.814Z,997.04
2019-04-05T01:32:14.811Z,997.09
2019-04-05T01:33:14.793Z,997.11
2019-04-05T01:34:14.778Z,997.14
2019-04-05T01:35:14.826Z,997.15
2019-04-05T01:36:14.757Z,997.12
2019-04-05T01:37:14.744Z,997.11
2019-04-05T01:38:14.738Z,997.09
2019-04-05T01:39:14.723Z,997.14
2019-04-05T01:40:14.717Z,997.17
2019-04-05T01:41:14.778Z,997.24
2019-04-05T01:42:14.692Z,997.21
2019-04-05T01:43:14.691Z,997.26
2019-04-05T01:44:14.744Z,997.25
2019-04-05T01:45:14.660Z,997.25
2019-04-05T01:46:14.645Z,997.31
2019-04-05T01:47:14.641Z,997.27
2019-04-05T01:48:14.627Z,997.28
2019-04-05T01:49:14.653Z,997.27
2019-04-05T01:50:14.612Z,997.31
2019-04-05T01:51:14.590Z,997.33
2019-04-05T01:52:14.641Z,997.36
2019-04-05T01:53:14.568Z,997.37
2019-04-05T01:54:14.561Z,997.39
2019-04-05T01:55:14.621Z,997.42
2019-04-05T01:56:14.540Z,997.43
2019-04-05T01:57:14.528Z,997.40
2019-04-05T01:58:14.514Z,997.38
2019-04-05T01:59:14.511Z,997.34
2019-04-05T02:00:14.503Z,997.34
2019-04-05T02:01:14.495Z,997.38
2019-04-05T02:02:14.476Z,997.38
2019-04-05T02:03:14.460Z,997.39
2019-04-05T02:04:14.451Z,997.37
2019-04-05T02:05:14.441Z,997.37
2019-04-05T02:06:14.483Z,997.39
2019-04-05T02:07:14.419Z,997.40
2019-04-05T02:08:14.419Z,997.42
2019-04-05T02:09:14.398Z,997.41
2019-04-05T02:10:14.383Z,997.44
2019-04-05T02:11:14.425Z,997.42
2019-04-05T02:12:14.364Z,997.40
2019-04-05T02:13:14.356Z,997.40
2019-04-05T02:14:14.337Z,997.39
2019-04-05T02:15:14.325Z,997.42
2019-04-05T02:16:14.373Z,997.40
2019-04-05T02:17:14.316Z,997.41
2019-04-05T02:18:14.293Z,997.46
2019-04-05T02:19:14.284Z,997.46
2019-04-05T02:20:14.281Z,997.47
2019-04-05T02:21:14.314Z,997.46
2019-04-05T02:22:14.264Z,997.46
2019-04-05T02:23:14.238Z,997.43
2019-04-05T02:24:14.234Z,997.41
2019-04-05T02:25:14.220Z,997.44
2019-04-05T02:26:14.246Z,997.44
2019-04-05T02:27:14.194Z,997.45
2019-04-05T02:28:14.185Z,997.44
2019-04-05T02:29:14.172Z,997.39
2019-04-05T02:30:14.166Z,997.40
2019-04-05T02:31:14.158Z,997.34
2019-04-05T02:32:14.201Z,997.34
2019-04-05T02:33:14.167Z,997.35
2019-04-05T02:34:14.124Z,997.38
2019-04-05T02:35:14.115Z,997.40
2019-04-05T02:36:14.101Z,997.34
2019-04-05T02:37:14.145Z,997.35
2019-04-05T02:38:14.128Z,997.35
2019-04-05T02:39:14.065Z,997.46
2019-04-05T02:40:14.059Z,997.39
2019-04-05T02:41:14.041Z,997.40
2019-04-05T02:42:14.036Z,997.45
2019-04-05T02:43:14.060Z,997.40
2019-04-05T02:44:14.028Z,997.39
2019-04-05T02:45:14.007Z,997.39
2019-04-05T02:46:23.507Z,997.43
2019-04-05T02:47:14.983Z,997.40
2019-04-05T02:48:13.991Z,997.44
2019-04-05T02:49:13.953Z,997.44
2019-04-05T02:50:13.940Z,997.41
2019-04-05T02:51:13.931Z,997.43
2019-04-05T02:52:13.926Z,997.42
2019-04-05T02:53:13.908Z,997.43
2019-04-05T02:54:13.916Z,997.46
2019-04-05T02:55:13.891Z,997.45
2019-04-05T02:56:13.885Z,997.46
2019-04-05T02:57:13.866Z,997.46
2019-04-05T02:58:13.853Z,997.45
2019-04-05T02:59:14.095Z,997.44
2019-04-05T03:00:13.839Z,997.46
2019-04-05T03:01:13.828Z,997.47
2019-04-05T03:02:13.815Z,997.45
2019-04-05T03:03:13.800Z,997.49
2019-04-05T03:04:13.797Z,997.47
2019-04-05T03:05:13.794Z,997.47
2019-04-05T03:06:13.785Z,997.45
2019-04-05T03:07:13.760Z,997.47
2019-04-05T03:08:13.748Z,997.51
2019-04-05T03:09:13.739Z,997.52
2019-04-05T03:10:13.780Z,997.53
2019-04-05T03:11:13.713Z,997.57
2019-04-05T03:12:13.704Z,997.58
2019-04-05T03:13:13.695Z,997.57
2019-04-05T03:14:13.738Z,997.63
2019-04-05T03:15:13.668Z,997.58
2019-04-05T03:16:13.664Z,997.57
2019-04-05T03:17:13.651Z,997.55
2019-04-05T03:18:13.644Z,997.54
2019-04-05T03:19:13.630Z,997.57
2019-04-05T03:20:13.693Z,997.57
2019-04-05T03:21:13.609Z,997.56
2019-04-05T03:22:13.602Z,997.56
2019-04-05T03:23:13.583Z,997.60
2019-04-05T03:24:13.573Z,997.57
2019-04-05T03:25:13.621Z,997.58
2019-04-05T03:26:13.567Z,997.62
2019-04-05T03:27:13.545Z,997.64
2019-04-05T03:28:13.532Z,997.64
2019-04-05T03:29:13.523Z,997.68
2019-04-05T03:30:13.596Z,997.68
2019-04-05T03:31:13.528Z,997.66
2019-04-05T03:32:13.494Z,997.71
2019-04-05T03:33:13.487Z,997.69
2019-04-05T03:34:13.463Z,997.72
2019-04-05T03:35:13.453Z,997.70
2019-04-05T03:36:13.497Z,997.73
2019-04-05T03:37:13.428Z,997.73
2019-04-05T03:38:13.427Z,997.69
2019-04-05T03:39:13.406Z,997.74
2019-04-05T03:40:13.393Z,997.80
2019-04-05T03:41:13.438Z,997.76
2019-04-05T03:42:13.384Z,997.80
2019-04-05T03:43:13.366Z,997.81
2019-04-05T03:44:13.355Z,997.81
2019-04-05T03:45:13.345Z,997.84
2019-04-05T03:46:13.395Z,997.85
2019-04-05T03:47:13.337Z,997.81
2019-04-05T03:48:13.308Z,997.85
2019-04-05T03:49:13.294Z,997.82
2019-04-05T03:50:13.288Z,997.84
2019-04-05T03:51:13.273Z,997.88
2019-04-05T03:52:13.373Z,997.88
2019-04-05T03:53:13.266Z,997.92
2019-04-05T03:54:13.246Z,997.94
2019-04-05T03:55:13.228Z,997.93
2019-04-05T03:56:13.224Z,997.95
2019-04-05T03:57:13.209Z,997.94
2019-04-05T03:58:13.213Z,997.91
2019-04-05T03:59:13.185Z,997.99
2019-04-05T04:00:13.193Z,997.94
2019-04-05T04:01:13.172Z,997.99
2019-04-05T04:02:13.159Z,997.96
2019-04-05T04:03:14.027Z,997.95
2019-04-05T04:04:13.137Z,997.91
2019-04-05T04:05:13.131Z,997.94
2019-04-05T04:06:13.110Z,997.95
2019-04-05T04:07:13.102Z,997.95
2019-04-05T04:08:13.097Z,997.99
2019-04-05T04:09:13.082Z,998.00
2019-04-05T04:10:13.072Z,998.01
2019-04-05T04:11:13.061Z,998.04
2019-04-05T04:12:13.059Z,998.07
2019-04-05T04:13:13.046Z,998.09
2019-04-05T04:14:13.026Z,998.06
2019-04-05T04:15:14.111Z,998.09
2019-04-05T04:16:13.004Z,998.09
2019-04-05T04:17:13.659Z,998.04
2019-04-05T04:18:12.990Z,998.10
2019-04-05T04:19:12.990Z,998.04
2019-04-05T04:20:12.962Z,998.07
2019-04-05T04:21:12.947Z,998.08
2019-04-05T04:22:12.940Z,998.10
2019-04-05T04:23:12.982Z,998.12
2019-04-05T04:24:12.918Z,998.10
2019-04-05T04:25:12.907Z,998.15
2019-04-05T04:26:12.933Z,998.17
2019-04-05T04:27:12.886Z,998.19
2019-04-05T04:28:12.953Z,998.18
2019-04-05T04:29:12.867Z,998.22
2019-04-05T04:30:12.848Z,998.21
2019-04-05T04:31:12.837Z,998.23
2019-04-05T04:32:12.830Z,998.26
2019-04-05T04:33:12.823Z,998.33
2019-04-05T04:34:12.882Z,998.33
2019-04-05T04:35:12.797Z,998.31
2019-04-05T04:36:13.317Z,998.36
2019-04-05T04:37:12.771Z,998.35
2019-04-05T04:38:12.764Z,998.41
2019-04-05T04:39:12.760Z,998.39
2019-04-05T04:40:12.759Z,998.45
2019-04-05T04:41:12.728Z,998.49
2019-04-05T04:42:12.718Z,998.50
2019-04-05T04:43:12.710Z,998.48
2019-04-05T04:44:12.751Z,998.50
2019-04-05T04:45:13.057Z,998.49
2019-04-05T04:46:12.678Z,998.52
2019-04-05T04:47:25.463Z,998.55
2019-04-05T04:48:13.657Z,998.56
2019-04-05T04:49:12.675Z,998.55
2019-04-05T04:50:12.643Z,998.58
2019-04-05T04:51:12.620Z,998.63
2019-04-05T04:52:12.647Z,998.63
2019-04-05T04:53:12.598Z,998.62
2019-04-05T04:54:12.641Z,998.61
2019-04-05T04:55:12.606Z,998.66
2019-04-05T04:56:12.567Z,998.63
2019-04-05T04:57:12.549Z,998.63
2019-04-05T04:58:12.543Z,998.62
2019-04-05T04:59:12.528Z,998.64
2019-04-05T05:00:12.550Z,998.64
2019-04-05T05:01:12.532Z,998.66
2019-04-05T05:02:12.508Z,998.67
2019-04-05T05:03:12.490Z,998.71
2019-04-05T05:04:12.478Z,998.77
2019-04-05T05:05:12.467Z,998.77
2019-04-05T05:06:12.511Z,998.83
2019-04-05T05:07:12.446Z,998.79
2019-04-05T05:08:12.434Z,998.82
2019-04-05T05:09:12.418Z,998.77
2019-04-05T05:10:12.423Z,998.73
2019-04-05T05:11:14.885Z,998.76
2019-04-05T05:12:12.387Z,998.74
2019-04-05T05:13:12.376Z,998.76
2019-04-05T05:14:12.361Z,998.75
2019-04-05T05:15:12.351Z,998.78
2019-04-05T05:16:12.353Z,998.76
2019-04-05T05:17:12.335Z,998.76
2019-04-05T05:18:12.317Z,998.76
2019-04-05T05:19:12.310Z,998.76
2019-04-05T05:20:12.333Z,998.77
2019-04-05T05:21:12.354Z,998.78
2019-04-05T05:22:12.274Z,998.79
2019-04-05T05:23:12.295Z,998.81
2019-04-05T05:24:12.300Z,998.77
2019-04-05T05:25:12.274Z,998.81
2019-04-05T05:26:12.233Z,998.82
2019-04-05T05:27:12.228Z,998.80
2019-04-05T05:28:12.210Z,998.80
2019-04-05T05:29:12.203Z,998.82
2019-04-05T05:30:12.197Z,998.82
2019-04-05T05:31:12.253Z,998.85
2019-04-05T05:32:12.170Z,998.87
2019-04-05T05:33:12.160Z,998.89
2019-04-05T05:34:12.147Z,998.93
2019-04-05T05:35:12.130Z,998.97
2019-04-05T05:36:12.124Z,998.96
2019-04-05T05:37:12.167Z,998.99
2019-04-05T05:38:12.111Z,998.95
2019-04-05T05:39:12.145Z,998.98
2019-04-05T05:40:12.084Z,998.98
2019-04-05T05:41:12.072Z,998.96
2019-04-05T05:42:12.057Z,998.99
2019-04-05T05:43:12.045Z,999.00
2019-04-05T05:44:12.093Z,999.02
2019-04-05T05:45:12.027Z,999.06
2019-04-05T05:46:12.012Z,999.11
2019-04-05T05:47:12.039Z,999.07
2019-04-05T05:48:12.027Z,999.16
2019-04-05T05:49:11.999Z,999.18
2019-04-05T05:50:11.990Z,999.15
2019-04-05T05:51:11.963Z,999.18
2019-04-05T05:52:12.015Z,999.21
2019-04-05T05:53:11.947Z,999.21
2019-04-05T05:54:11.954Z,999.20
2019-04-05T05:55:11.913Z,999.22
2019-04-05T05:56:11.912Z,999.22
2019-04-05T05:57:11.888Z,999.26
2019-04-05T05:58:11.877Z,999.30
2019-04-05T05:59:11.908Z,999.31
2019-04-05T06:00:11.860Z,999.29
2019-04-05T06:01:11.856Z,999.34
2019-04-05T06:02:11.847Z,999.34
2019-04-05T06:03:12.079Z,999.33
2019-04-05T06:04:12.852Z,999.32
2019-04-05T06:05:11.847Z,999.39
2019-04-05T06:06:11.793Z,999.36
2019-04-05T06:07:11.786Z,999.44
2019-04-05T06:08:11.771Z,999.42
2019-04-05T06:09:11.765Z,999.42
2019-04-05T06:10:11.752Z,999.43
2019-04-05T06:11:11.751Z,999.36
2019-04-05T06:12:11.727Z,999.44
2019-04-05T06:13:11.717Z,999.49
2019-04-05T06:14:11.700Z,999.54
2019-04-05T06:15:11.695Z,999.47
2019-04-05T06:16:11.698Z,999.50
2019-04-05T06:17:11.689Z,999.53
2019-04-05T06:18:12.752Z,999.56
2019-04-05T06:19:11.651Z,999.57
2019-04-05T06:20:11.635Z,999.58
2019-04-05T06:21:11.631Z,999.63
2019-04-05T06:22:11.617Z,999.61
2019-04-05T06:23:11.612Z,999.67
2019-04-05T06:24:11.590Z,999.64
2019-04-05T06:25:11.584Z,999.67
2019-04-05T06:26:11.575Z,999.69
2019-04-05T06:27:11.566Z,999.69
2019-04-05T06:28:11.576Z,999.68
2019-04-05T06:29:11.541Z,999.69
2019-04-05T06:30:11.529Z,999.70
2019-04-05T06:31:11.514Z,999.71
2019-04-05T06:32:11.502Z,999.68
2019-04-05T06:33:11.502Z,999.73
2019-04-05T06:34:11.485Z,999.75
2019-04-05T06:35:11.475Z,999.83
2019-04-05T06:36:11.465Z,999.73
2019-04-05T06:37:11.456Z,999.80
2019-04-05T06:38:11.493Z,999.79
2019-04-05T06:39:11.435Z,999.78
2019-04-05T06:40:11.419Z,999.76
2019-04-05T06:41:11.402Z,999.81
2019-04-05T06:42:11.410Z,999.78
2019-04-05T06:43:11.390Z,999.73
2019-04-05T06:44:11.390Z,999.77
2019-04-05T06:45:11.370Z,999.75
2019-04-05T06:46:11.354Z,999.80
2019-04-05T06:47:11.387Z,999.79
2019-04-05T06:48:18.895Z,999.74
2019-04-05T06:49:12.313Z,999.76
2019-04-05T06:50:11.305Z,999.79
2019-04-05T06:51:11.294Z,999.78
2019-04-05T06:52:11.286Z,999.74
2019-04-05T06:53:11.289Z,999.74
2019-04-05T06:54:11.278Z,999.71
2019-04-05T06:55:11.252Z,999.74
2019-04-05T06:56:11.246Z,999.75
2019-04-05T06:57:11.251Z,999.75
2019-04-05T06:58:11.229Z,999.72
2019-04-05T06:59:11.231Z,999.73
2019-04-05T07:00:11.208Z,999.75
2019-04-05T07:01:11.191Z,999.77
2019-04-05T07:02:11.177Z,999.84
2019-04-05T07:03:13.568Z,999.82
2019-04-05T07:04:11.162Z,999.88
2019-04-05T07:05:11.201Z,999.94
2019-04-05T07:06:11.138Z,999.96
2019-04-05T07:07:11.160Z,999.97
2019-04-05T07:08:11.111Z,1000.06
2019-04-05T07:09:11.147Z,1000.06
2019-04-05T07:10:11.135Z,1000.04
2019-04-05T07:11:11.107Z,1000.05
2019-04-05T07:12:11.066Z,1000.13
2019-04-05T07:13:11.060Z,1000.06
2019-04-05T07:14:11.041Z,1000.06
2019-04-05T07:15:11.043Z,1000.11
2019-04-05T07:16:11.302Z,1000.15
2019-04-05T07:17:11.017Z,1000.20
2019-04-05T07:18:11.005Z,1000.22
2019-04-05T07:19:10.989Z,1000.24
2019-04-05T07:20:10.977Z,1000.27
2019-04-05T07:21:10.967Z,1000.32
2019-04-05T07:22:10.968Z,1000.31
2019-04-05T07:23:10.951Z,1000.28
2019-04-05T07:24:10.943Z,1000.37
2019-04-05T07:25:10.929Z,1000.34
2019-04-05T07:26:10.917Z,1000.40
2019-04-05T07:27:10.967Z,1000.42
2019-04-05T07:28:10.896Z,1000.38
2019-04-05T07:29:10.883Z,1000.34
2019-04-05T07:30:10.897Z,1000.45
2019-04-05T07:31:10.866Z,1000.47
2019-04-05T07:32:10.850Z,1000.48
2019-04-05T07:33:10.847Z,1000.49
2019-04-05T07:34:10.833Z,1000.52
2019-04-05T07:35:10.814Z,1000.58
2019-04-05T07:36:10.828Z,1000.61
2019-04-05T07:37:10.825Z,1000.66
2019-04-05T07:38:10.784Z,1000.64
2019-04-05T07:39:10.770Z,1000.67
2019-04-05T07:40:10.793Z,1000.68
2019-04-05T07:41:10.753Z,1000.66
2019-04-05T07:42:10.757Z,1000.56
2019-04-05T07:43:10.736Z,1000.67
2019-04-05T07:44:10.712Z,1000.66
2019-04-05T07:45:10.705Z,1000.60
2019-04-05T07:46:10.692Z,1000.72
2019-04-05T07:47:10.701Z,1000.75
2019-04-05T07:48:10.674Z,1000.79
2019-04-05T07:49:10.666Z,1000.76
2019-04-05T07:50:10.653Z,1000.76
2019-04-05T07:51:10.649Z,1000.77
2019-04-05T07:52:12.909Z,1000.74
2019-04-05T07:53:10.617Z,1000.76
2019-04-05T07:54:10.603Z,1000.75
2019-04-05T07:55:10.599Z,1000.78
2019-04-05T07:56:10.593Z,1000.80
2019-04-05T07:57:10.581Z,1000.86
2019-04-05T07:58:10.568Z,1000.87
2019-04-05T07:59:10.604Z,1000.95
2019-04-05T08:00:10.544Z,1000.97
2019-04-05T08:01:10.526Z,1000.94
2019-04-05T08:02:10.517Z,1000.92
2019-04-05T08:03:10.565Z,1000.94
2019-04-05T08:04:10.555Z,1000.94
2019-04-05T08:05:10.484Z,1000.98
2019-04-05T08:06:10.563Z,1000.99
2019-04-05T08:07:10.460Z,1000.93
2019-04-05T08:08:10.453Z,1000.97
2019-04-05T08:09:10.455Z,1000.95
2019-04-05T08:10:10.438Z,1000.93
2019-04-05T08:11:10.423Z,1000.95
2019-04-05T08:12:10.454Z,1001.04
2019-04-05T08:13:10.397Z,1000.97
2019-04-05T08:14:10.391Z,1000.98
2019-04-05T08:15:10.378Z,1000.97
2019-04-05T08:16:10.375Z,1000.97
2019-04-05T08:17:10.349Z,1000.94
2019-04-05T08:18:10.400Z,1000.96
2019-04-05T08:19:10.408Z,1000.99
2019-04-05T08:20:10.322Z,1000.95
2019-04-05T08:21:10.309Z,1000.96
2019-04-05T08:22:10.299Z,1001.01
2019-04-05T08:23:10.284Z,1001.00
2019-04-05T08:24:10.279Z,1001.08
2019-04-05T08:25:10.355Z,1001.08
2019-04-05T08:26:10.255Z,1001.03
2019-04-05T08:27:10.315Z,1001.04
2019-04-05T08:28:10.230Z,1001.02
2019-04-05T08:29:10.246Z,1000.99
2019-04-05T08:30:10.214Z,1000.98
2019-04-05T08:31:11.106Z,1001.01
2019-04-05T08:32:14.743Z,1000.94
2019-04-05T08:33:10.179Z,1001.00
2019-04-05T08:34:10.163Z,1000.93
2019-04-05T08:35:10.175Z,1000.93
2019-04-05T08:36:10.179Z,1000.98
2019-04-05T08:37:10.147Z,1000.99
2019-04-05T08:38:10.123Z,1001.01
2019-04-05T08:39:10.120Z,1001.03
2019-04-05T08:40:10.099Z,1001.03
2019-04-05T08:41:10.145Z,1001.03
2019-04-05T08:42:10.890Z,1000.97
2019-04-05T08:43:10.069Z,1000.96
2019-04-05T08:44:10.062Z,1000.95
2019-04-05T08:45:10.047Z,1000.96
2019-04-05T08:46:10.123Z,1001.04
2019-04-05T08:47:10.083Z,1001.02
2019-04-05T08:48:10.015Z,1001.04
2019-04-05T08:49:11.456Z,1001.01
2019-04-05T08:50:09.997Z,1001.01
2019-04-05T08:51:09.982Z,1001.03
2019-04-05T08:52:09.967Z,1001.10
2019-04-05T08:53:10.019Z,1001.04
2019-04-05T08:54:09.943Z,1001.07
2019-04-05T08:55:09.937Z,1001.00
2019-04-05T08:56:09.931Z,1001.08
2019-04-05T08:57:09.911Z,1001.16
2019-04-05T08:58:09.960Z,1001.07
2019-04-05T08:59:09.898Z,1001.11
2019-04-05T09:00:09.879Z,1001.02
2019-04-05T09:01:09.872Z,1000.96
2019-04-05T09:02:09.860Z,1001.04
2019-04-05T09:03:11.927Z,1001.09
2019-04-05T09:04:09.836Z,1001.12
2019-04-05T09:05:09.868Z,1001.10
2019-04-05T09:06:09.816Z,1001.09
2019-04-05T09:07:09.806Z,1001.04
2019-04-05T09:08:09.793Z,1001.07
2019-04-05T09:09:09.860Z,1001.03
2019-04-05T09:10:09.774Z,1001.09
2019-04-05T09:11:09.769Z,1001.14
2019-04-05T09:12:09.755Z,1001.20
2019-04-05T09:13:09.776Z,1001.20
2019-04-05T09:14:09.728Z,1001.11
2019-04-05T09:15:09.783Z,1001.10
2019-04-05T09:16:11.717Z,1001.12
2019-04-05T09:17:09.698Z,1001.16
2019-04-05T09:18:09.685Z,1001.16
2019-04-05T09:19:22.760Z,1001.18
2019-04-05T09:20:10.661Z,1001.16
2019-04-05T09:21:10.179Z,1001.21
2019-04-05T09:22:09.642Z,1001.24
2019-04-05T09:23:09.627Z,1001.26
2019-04-05T09:24:09.613Z,1001.26
2019-04-05T09:25:09.664Z,1001.29
2019-04-05T09:26:09.590Z,1001.32
2019-04-05T09:27:09.659Z,1001.38
2019-04-05T09:28:09.577Z,1001.41
2019-04-05T09:29:09.606Z,1001.43
2019-04-05T09:30:09.547Z,1001.45
2019-04-05T09:31:09.593Z,1001.39
2019-04-05T09:32:09.526Z,1001.46
2019-04-05T09:33:09.524Z,1001.41
2019-04-05T09:34:09.519Z,1001.37
2019-04-05T09:35:09.522Z,1001.41
2019-04-05T09:36:09.494Z,1001.35
2019-04-05T09:37:09.471Z,1001.36
2019-04-05T09:38:09.470Z,1001.29
2019-04-05T09:39:14.977Z,1001.35
2019-04-05T09:40:10.521Z,1001.41
2019-04-05T09:41:09.506Z,1001.41
2019-04-05T09:42:09.417Z,1001.34
2019-04-05T09:43:09.429Z,1001.38
2019-04-05T09:44:09.397Z,1001.38
2019-04-05T09:45:09.388Z,1001.38
2019-04-05T09:46:09.383Z,1001.37
2019-04-05T09:47:09.418Z,1001.46
2019-04-05T09:48:09.354Z,1001.45
2019-04-05T09:49:09.338Z,1001.48
2019-04-05T09:50:09.326Z,1001.51
2019-04-05T09:51:09.395Z,1001.54
2019-04-05T09:52:09.306Z,1001.53
2019-04-05T09:53:09.399Z,1001.52
2019-04-05T09:54:09.281Z,1001.62
2019-04-05T09:55:09.277Z,1001.62
2019-04-05T09:56:09.264Z,1001.62
2019-04-05T09:57:09.253Z,1001.63
2019-04-05T09:58:10.238Z,1001.63
2019-04-05T09:59:09.292Z,1001.67
2019-04-05T10:00:09.221Z,1001.69
2019-04-05T10:01:09.285Z,1001.66
2019-04-05T10:02:09.199Z,1001.66
2019-04-05T10:03:09.189Z,1001.61
2019-04-05T10:04:09.172Z,1001.64
2019-04-05T10:05:09.164Z,1001.62
2019-04-05T10:06:09.155Z,1001.63
2019-04-05T10:07:09.157Z,1001.65
2019-04-05T10:08:09.144Z,1001.72
2019-04-05T10:09:09.179Z,1001.68
2019-04-05T10:10:09.105Z,1001.74
2019-04-05T10:11:09.103Z,1001.75
2019-04-05T10:12:09.186Z,1001.76
2019-04-05T10:13:09.919Z,1001.67
2019-04-05T10:14:09.075Z,1001.74
2019-04-05T10:15:09.067Z,1001.87
2019-04-05T10:16:09.048Z,1001.79
2019-04-05T10:17:09.035Z,1001.90
2019-04-05T10:18:09.083Z,1001.83
2019-04-05T10:19:09.015Z,1001.87
2019-04-05T10:20:09.079Z,1001.87
2019-04-05T10:21:08.987Z,1001.88
2019-04-05T10:22:08.985Z,1001.92
2019-04-05T10:23:08.968Z,1001.90
2019-04-05T10:24:09.056Z,1001.87
2019-04-05T10:25:08.946Z,1001.90
2019-04-05T10:26:08.935Z,1001.97
2019-04-05T10:27:08.922Z,1001.93
2019-04-05T10:28:08.914Z,1001.93
2019-04-05T10:29:08.898Z,1001.93
2019-04-05T10:30:08.946Z,1001.98
2019-04-05T10:31:08.888Z,1002.02
2019-04-05T10:32:08.873Z,1001.95
2019-04-05T10:33:08.862Z,1001.95
2019-04-05T10:34:08.845Z,1001.94
2019-04-05T10:35:08.919Z,1001.97
2019-04-05T10:36:08.853Z,1001.96
2019-04-05T10:37:08.822Z,1001.97
2019-04-05T10:38:08.807Z,1001.97
2019-04-05T10:39:08.795Z,1001.97
2019-04-05T10:40:08.863Z,1001.99
2019-04-05T10:41:08.776Z,1002.01
2019-04-05T10:42:08.781Z,1001.96
2019-04-05T10:43:08.754Z,1002.03
2019-04-05T10:44:08.739Z,1001.99
2019-04-05T10:45:08.728Z,1002.05
2019-04-05T10:46:08.775Z,1002.03
2019-04-05T10:47:08.763Z,1002.05
2019-04-05T10:48:08.695Z,1002.05
2019-04-05T10:49:08.682Z,1001.97
2019-04-05T10:50:08.671Z,1002.03
2019-04-05T10:51:08.670Z,1002.07
2019-04-05T10:52:08.655Z,1002.03
2019-04-05T10:53:08.722Z,1002.03
2019-04-05T10:54:09.567Z,1002.01
2019-04-05T10:55:08.621Z,1002.04
2019-04-05T10:56:08.605Z,1002.02
2019-04-05T10:57:08.598Z,1002.03
2019-04-05T10:58:08.649Z,1002.03
2019-04-05T10:59:08.573Z,1002.09
2019-04-05T11:00:08.570Z,1002.10
2019-04-05T11:01:08.563Z,1002.09
2019-04-05T11:02:08.540Z,1002.14
2019-04-05T11:03:08.588Z,1002.18
2019-04-05T11:04:08.524Z,1002.15
2019-04-05T11:05:08.512Z,1002.19
2019-04-05T11:06:08.557Z,1002.18
2019-04-05T11:07:08.490Z,1002.17
2019-04-05T11:08:08.536Z,1002.17
2019-04-05T11:09:08.525Z,1002.17
2019-04-05T11:10:08.454Z,1002.17
2019-04-05T11:11:08.505Z,1002.21
2019-04-05T11:12:08.798Z,1002.29
2019-04-05T11:13:08.428Z,1002.30
2019-04-05T11:14:13.851Z,1002.27
2019-04-05T11:15:09.404Z,1002.22
2019-04-05T11:16:08.427Z,1002.28
2019-04-05T11:17:08.382Z,1002.26
2019-04-05T11:18:08.376Z,1002.26
2019-04-05T11:19:08.366Z,1002.25
2019-04-05T11:20:20.660Z,1002.26
2019-04-05T11:21:09.331Z,1002.27
2019-04-05T11:22:08.331Z,1002.27
2019-04-05T11:23:08.316Z,1002.25
2019-04-05T11:24:08.301Z,1002.22
2019-04-05T11:25:08.329Z,1002.21
2019-04-05T11:26:08.361Z,1002.26
2019-04-05T11:27:08.268Z,1002.22
2019-04-05T11:28:08.271Z,1002.27
2019-04-05T11:29:08.248Z,1002.26
2019-04-05T11:30:08.245Z,1002.21
2019-04-05T11:31:08.225Z,1002.17
2019-04-05T11:32:08.272Z,1002.21
2019-04-05T11:33:08.201Z,1002.15
2019-04-05T11:34:08.194Z,1002.20
2019-04-05T11:35:08.183Z,1002.24
2019-04-05T11:36:08.185Z,1002.23
2019-04-05T11:37:08.180Z,1002.23
2019-04-05T11:38:08.146Z,1002.17
2019-04-05T11:39:08.141Z,1002.15
2019-04-05T11:40:08.142Z,1002.21
2019-04-05T11:41:08.163Z,1002.20
2019-04-05T11:42:08.165Z,1002.15
2019-04-05T11:43:08.098Z,1002.15
2019-04-05T11:44:08.089Z,1002.16
2019-04-05T11:45:08.071Z,1002.17
2019-04-05T11:46:08.063Z,1002.19
2019-04-05T11:47:08.107Z,1002.21
2019-04-05T11:48:08.037Z,1002.20
2019-04-05T11:49:08.052Z,1002.19
2019-04-05T11:50:08.036Z,1002.18
2019-04-05T11:51:08.004Z,1002.18
2019-04-05T11:52:08.055Z,1002.24
2019-04-05T11:53:08.041Z,1002.25
2019-04-05T11:54:07.977Z,1002.26
2019-04-05T11:55:07.967Z,1002.27
2019-04-05T11:56:14.401Z,1002.20
2019-04-05T11:57:08.939Z,1002.24
2019-04-05T11:58:08.095Z,1002.24
2019-04-05T11:59:07.923Z,1002.18
2019-04-05T12:00:07.936Z,1002.17
2019-04-05T12:01:07.893Z,1002.20
2019-04-05T12:02:07.882Z,1002.22
2019-04-05T12:03:09.661Z,1002.26
2019-04-05T12:04:07.930Z,1002.23
2019-04-05T12:05:07.848Z,1002.18
2019-04-05T12:06:07.844Z,1002.21
2019-04-05T12:07:07.843Z,1002.27
2019-04-05T12:08:07.817Z,1002.25
2019-04-05T12:09:07.866Z,1002.33
2019-04-05T12:10:07.800Z,1002.26
2019-04-05T12:11:07.805Z,1002.27
2019-04-05T12:12:07.774Z,1002.30
2019-04-05T12:13:07.766Z,1002.30
2019-04-05T12:14:07.771Z,1002.34
2019-04-05T12:15:07.745Z,1002.31
2019-04-05T12:16:10.374Z,1002.33
2019-04-05T12:17:09.689Z,1002.30
2019-04-05T12:18:07.766Z,1002.31